Lehigh, Iowa
Current Conditions -  °F | °C
As of 10:15 PM on Wednesday 22 Oct 2014 (Local Time) from KEBS Reporting Station
Broken Clouds Broken Clouds  
Wind Chill: 55°   Ceiling: 7500
Heat Index: 55°   Visibility: 10mi
Dew Point: 45°   Wind: 10mph
Humidity: 67%   Direction: 190°S
Pressure: 30.09"   Gusts: 20mph
Location:  42.36°N, 94.05°W
Report Text: KEBS 230315Z AUTO 19009G17KT 150V230 10SM FEW065 BKN075 BKN085 13/07 A3009 RMK AO2
Loading
Personal Weather Stations






























Interactive Weather Map
Tropical Storm Tracking
New forecast layout! Learn more

10-Day Weather Forecast

Advertisements
Track Severe Weather on mobile